createdAt,value
2019-01-10T00:04:07.475Z,3.12
2019-01-10T00:06:36.204Z,2.77
2019-01-10T00:09:06.466Z,2.85
2019-01-10T00:11:35.149Z,2.90
2019-01-10T00:14:03.813Z,3.08
2019-01-10T00:16:32.472Z,3.58
2019-01-10T00:19:01.174Z,3.33
2019-01-10T00:21:29.798Z,3.22
2019-01-10T00:23:58.474Z,2.90
2019-01-10T00:26:28.761Z,2.97
2019-01-10T00:28:57.408Z,3.17
2019-01-10T00:31:26.184Z,3.00
2019-01-10T00:33:54.928Z,3.10
2019-01-10T00:36:23.686Z,3.00
2019-01-10T00:38:52.358Z,2.80
2019-01-10T00:41:21.149Z,3.12
2019-01-10T00:43:49.874Z,3.60
2019-01-10T00:46:18.622Z,3.37
2019-01-10T00:48:47.251Z,3.02
2019-01-10T00:51:16.031Z,3.40
2019-01-10T00:53:44.632Z,3.50
2019-01-10T00:56:13.462Z,3.95
2019-01-10T00:58:42.128Z,3.17
2019-01-10T01:01:10.837Z,3.20
2019-01-10T01:03:39.513Z,3.33
2019-01-10T01:06:08.177Z,3.25
2019-01-10T01:08:38.434Z,3.20
2019-01-10T01:11:07.097Z,2.93
2019-01-10T01:13:35.802Z,3.15
2019-01-10T01:16:04.646Z,3.00
2019-01-10T01:18:33.361Z,3.45
2019-01-10T01:21:02.103Z,3.20
2019-01-10T01:23:30.782Z,3.15
2019-01-10T01:28:39.956Z,3.12
2019-01-10T01:31:08.884Z,3.58
2019-01-10T01:33:37.577Z,3.35
2019-01-10T01:36:16.863Z,3.00
2019-01-10T01:38:45.612Z,3.27
2019-01-10T01:41:14.297Z,3.02
2019-01-10T01:43:43.124Z,3.12
2019-01-10T01:46:11.831Z,3.10
2019-01-10T01:48:40.619Z,3.20
2019-01-10T01:51:09.374Z,3.22
2019-01-10T01:53:38.224Z,3.03
2019-01-10T01:56:06.951Z,3.30
2019-01-10T01:58:35.721Z,3.50
2019-01-10T02:04:05.163Z,3.20
2019-01-10T02:06:33.808Z,3.60
2019-01-10T02:11:42.509Z,3.17
2019-01-10T02:14:11.433Z,3.30
2019-01-10T02:16:40.033Z,3.50
2019-01-10T02:19:08.744Z,3.25
2019-01-10T02:21:37.393Z,3.30
2019-01-10T02:24:06.000Z,3.42
2019-01-10T02:26:34.952Z,3.12
2019-01-10T02:29:03.834Z,3.42
2019-01-10T02:31:32.445Z,3.10
2019-01-10T02:34:01.064Z,3.55
2019-01-10T02:36:29.734Z,3.27
2019-01-10T02:38:58.336Z,3.60
2019-01-10T02:41:27.074Z,3.08
2019-01-10T02:43:55.887Z,3.35
2019-01-10T02:46:24.560Z,3.55
2019-01-10T02:48:53.360Z,3.37
2019-01-10T02:51:21.985Z,3.20
2019-01-10T02:53:50.684Z,4.08
2019-01-10T02:56:19.308Z,3.33
2019-01-10T02:58:48.069Z,3.62
2019-01-10T03:01:16.838Z,3.67
2019-01-10T03:03:45.565Z,3.10
2019-01-10T03:06:14.205Z,2.98
2019-01-10T03:08:42.873Z,3.13
2019-01-10T03:11:11.482Z,3.05
2019-01-10T03:16:17.676Z,3.22
2019-01-10T03:18:46.624Z,3.20
2019-01-10T03:21:15.432Z,3.10
2019-01-10T03:23:44.072Z,3.35
2019-01-10T03:26:12.785Z,3.20
2019-01-10T03:28:41.477Z,2.80
2019-01-10T03:31:10.193Z,3.00
2019-01-10T03:33:38.907Z,3.02
2019-01-10T03:36:07.613Z,3.37
2019-01-10T03:38:36.325Z,3.12
2019-01-10T03:41:05.090Z,3.30
2019-01-10T03:43:33.820Z,3.37
2019-01-10T03:46:02.583Z,3.30
2019-01-10T03:48:31.304Z,3.52
2019-01-10T03:51:00.122Z,3.47
2019-01-10T03:53:28.728Z,3.60
2019-01-10T03:55:57.452Z,3.37
2019-01-10T03:58:26.161Z,3.20
2019-01-10T04:00:54.809Z,3.20
2019-01-10T04:03:23.490Z,3.00
2019-01-10T04:05:52.217Z,3.00
2019-01-10T04:08:21.002Z,3.37
2019-01-10T04:10:49.668Z,3.00
2019-01-10T04:13:18.461Z,3.47
2019-01-10T04:15:47.109Z,3.15
2019-01-10T04:18:15.842Z,3.43
2019-01-10T04:20:44.723Z,3.42
2019-01-10T04:23:13.460Z,3.37
2019-01-10T04:25:43.011Z,3.40
2019-01-10T04:31:02.681Z,3.17
2019-01-10T04:33:31.455Z,3.08
2019-01-10T04:36:00.111Z,3.25
2019-01-10T04:38:28.774Z,3.85
2019-01-10T04:40:57.515Z,3.30
2019-01-10T04:43:27.794Z,3.75
2019-01-10T04:45:56.436Z,3.60
2019-01-10T04:48:25.092Z,3.35
2019-01-10T04:50:53.805Z,3.92
2019-01-10T04:53:22.493Z,3.62
2019-01-10T04:55:51.316Z,4.10
2019-01-10T04:58:20.142Z,4.22
2019-01-10T05:00:48.893Z,4.10
2019-01-10T05:03:17.754Z,4.35
2019-01-10T05:05:46.405Z,4.25
2019-01-10T05:08:15.160Z,4.10
2019-01-10T05:10:43.907Z,4.70
2019-01-10T05:13:12.601Z,4.53
2019-01-10T05:15:41.403Z,4.97
2019-01-10T05:18:10.206Z,4.45
2019-01-10T05:20:40.421Z,5.40
2019-01-10T05:23:09.152Z,4.92
2019-01-10T05:25:37.881Z,4.50
2019-01-10T05:28:06.566Z,4.30
2019-01-10T05:30:36.786Z,4.53
2019-01-10T05:33:05.533Z,4.53
2019-01-10T05:35:34.211Z,4.33
2019-01-10T05:38:02.970Z,4.25
2019-01-10T05:40:31.603Z,5.42
2019-01-10T05:43:00.276Z,4.10
2019-01-10T05:45:28.897Z,4.20
2019-01-10T05:47:57.621Z,4.00
2019-01-10T05:50:26.384Z,3.95
2019-01-10T05:52:55.048Z,4.33
2019-01-10T05:55:24.146Z,3.87
2019-01-10T05:57:52.869Z,3.80
2019-01-10T06:00:24.139Z,3.33
2019-01-10T06:02:52.896Z,3.93
2019-01-10T06:05:21.845Z,3.58
2019-01-10T06:07:50.516Z,3.72
2019-01-10T06:10:38.409Z,3.65
2019-01-10T06:13:07.053Z,4.03
2019-01-10T06:15:35.725Z,3.83
2019-01-10T06:18:04.419Z,3.83
2019-01-10T06:20:33.121Z,3.87
2019-01-10T06:23:01.711Z,3.83
2019-01-10T06:25:30.471Z,3.77
2019-01-10T06:27:59.309Z,3.92
2019-01-10T06:30:28.034Z,4.78
2019-01-10T06:32:56.651Z,4.28
2019-01-10T06:35:27.024Z,4.08
2019-01-10T06:37:55.821Z,3.90
2019-01-10T06:40:24.547Z,3.80
2019-01-10T06:42:53.298Z,3.90
2019-01-10T06:45:22.147Z,4.30
2019-01-10T06:47:50.885Z,4.10
2019-01-10T06:50:19.597Z,4.05
2019-01-10T06:52:48.327Z,4.00
2019-01-10T06:55:17.147Z,3.87
2019-01-10T06:57:46.061Z,4.15
2019-01-10T07:00:19.104Z,3.62
2019-01-10T07:02:47.769Z,3.60
2019-01-10T07:05:16.508Z,3.77
2019-01-10T07:07:45.184Z,4.47
2019-01-10T07:13:16.823Z,4.83
2019-01-10T07:15:45.565Z,4.20
2019-01-10T07:18:14.208Z,3.98
2019-01-10T07:20:42.941Z,4.20
2019-01-10T07:23:11.843Z,3.80
2019-01-10T07:25:40.551Z,3.72
2019-01-10T07:28:29.245Z,4.08
2019-01-10T07:30:58.513Z,4.60
2019-01-10T07:33:27.199Z,4.15
2019-01-10T07:35:56.718Z,3.72
2019-01-10T07:38:26.955Z,3.95
2019-01-10T07:40:55.829Z,3.60
2019-01-10T07:43:25.715Z,5.58
2019-01-10T07:45:54.372Z,3.58
2019-01-10T07:48:23.069Z,3.55
2019-01-10T07:50:52.280Z,4.10
2019-01-10T07:53:21.021Z,3.57
2019-01-10T07:55:49.668Z,3.60
2019-01-10T07:58:18.328Z,3.55
2019-01-10T08:00:47.022Z,3.20
2019-01-10T08:03:15.800Z,2.87
2019-01-10T08:05:44.467Z,2.80
2019-01-10T08:08:14.338Z,3.50
2019-01-10T08:11:02.829Z,3.25
2019-01-10T08:13:31.451Z,2.80
2019-01-10T08:16:00.131Z,3.27
2019-01-10T08:18:30.401Z,3.47
2019-01-10T08:20:59.206Z,3.35
2019-01-10T08:23:28.112Z,3.45
2019-01-10T08:25:56.728Z,3.60
2019-01-10T08:28:25.429Z,3.80
2019-01-10T08:30:54.169Z,3.75
2019-01-10T08:33:22.841Z,4.92
2019-01-10T08:35:51.540Z,3.87
2019-01-10T08:38:20.227Z,4.15
2019-01-10T08:40:49.107Z,4.03
2019-01-10T08:43:17.742Z,3.90
2019-01-10T08:46:09.316Z,3.98
2019-01-10T08:48:43.249Z,3.92
2019-01-10T08:51:11.942Z,5.33
2019-01-10T08:53:40.720Z,3.92
2019-01-10T08:56:09.410Z,4.60
2019-01-10T08:58:38.210Z,4.65
2019-01-10T09:01:06.932Z,4.97
2019-01-10T09:03:35.658Z,3.87
2019-01-10T09:06:08.187Z,4.70
2019-01-10T09:08:53.928Z,4.75
2019-01-10T09:11:22.621Z,4.50
2019-01-10T09:13:51.400Z,4.47
2019-01-10T09:16:20.089Z,3.80
2019-01-10T09:18:48.835Z,3.87
2019-01-10T09:21:17.622Z,4.50
2019-01-10T09:23:46.559Z,4.05
2019-01-10T09:26:15.301Z,4.83
2019-01-10T09:28:44.011Z,4.35
2019-01-10T09:31:14.347Z,3.98
2019-01-10T09:33:43.075Z,4.60
2019-01-10T09:36:11.729Z,4.10
2019-01-10T09:38:40.514Z,4.42
2019-01-10T09:41:09.148Z,3.98
2019-01-10T09:43:37.954Z,3.50
2019-01-10T09:46:06.672Z,3.20
2019-01-10T09:48:35.281Z,3.30
2019-01-10T09:51:04.047Z,3.40
2019-01-10T09:53:32.796Z,3.80
2019-01-10T09:56:01.518Z,3.70
2019-01-10T09:58:30.257Z,3.55
2019-01-10T10:00:58.994Z,3.60
2019-01-10T10:03:27.688Z,3.30
2019-01-10T10:05:56.420Z,3.40
2019-01-10T10:08:25.222Z,3.58
2019-01-10T10:10:53.958Z,3.58
2019-01-10T10:13:41.699Z,3.30
2019-01-10T10:16:10.402Z,3.20
2019-01-10T10:18:39.045Z,3.50
2019-01-10T10:24:01.393Z,3.42
2019-01-10T10:26:30.074Z,3.27
2019-01-10T10:28:58.776Z,3.40
2019-01-10T10:31:27.390Z,3.87
2019-01-10T10:33:56.141Z,3.72
2019-01-10T10:36:24.952Z,4.00
2019-01-10T10:38:53.728Z,3.72
2019-01-10T10:41:22.484Z,3.90
2019-01-10T10:43:51.251Z,3.50
2019-01-10T10:46:20.093Z,3.70
2019-01-10T10:48:48.862Z,3.45
2019-01-10T10:51:17.629Z,3.27
2019-01-10T10:53:46.266Z,3.27
2019-01-10T10:56:15.168Z,3.10
2019-01-10T10:58:43.929Z,3.33
2019-01-10T11:01:12.677Z,3.53
2019-01-10T11:03:41.321Z,3.40
2019-01-10T11:06:10.223Z,3.77
2019-01-10T11:08:39.159Z,3.67
2019-01-10T11:11:08.182Z,3.65
2019-01-10T11:13:36.920Z,3.80
2019-01-10T11:16:10.475Z,4.00
2019-01-10T11:18:41.781Z,3.40
2019-01-10T11:23:51.993Z,3.90
2019-01-10T11:26:20.827Z,4.00
2019-01-10T11:28:49.592Z,4.10
2019-01-10T11:31:18.241Z,3.85
2019-01-10T11:33:47.014Z,4.23
2019-01-10T11:36:15.950Z,4.25
2019-01-10T11:38:45.299Z,5.00
2019-01-10T11:41:34.385Z,6.00
2019-01-10T11:44:03.119Z,5.95
2019-01-10T11:46:31.979Z,8.88
2019-01-10T11:49:19.835Z,7.80
2019-01-10T11:51:48.775Z,7.50
2019-01-10T11:54:17.825Z,4.50
2019-01-10T11:56:46.488Z,7.00
2019-01-10T11:59:15.206Z,7.80
2019-01-10T12:01:43.943Z,4.50
2019-01-10T12:04:12.639Z,5.40
2019-01-10T12:06:41.532Z,4.35
2019-01-10T12:09:10.332Z,6.80
2019-01-10T12:11:38.964Z,6.83
2019-01-10T12:14:07.704Z,3.90
2019-01-10T12:16:36.430Z,3.97
2019-01-10T12:19:05.284Z,4.10
2019-01-10T12:21:33.979Z,4.10
2019-01-10T12:24:02.656Z,6.67
2019-01-10T12:26:31.404Z,6.05
2019-01-10T12:29:00.173Z,12.93
2019-01-10T12:31:29.049Z,9.65
2019-01-10T12:33:57.750Z,4.00
2019-01-10T12:36:26.537Z,5.12
2019-01-10T12:38:55.242Z,4.60
2019-01-10T12:41:23.952Z,5.28
2019-01-10T12:43:52.701Z,4.20
2019-01-10T12:46:21.523Z,3.67
2019-01-10T12:48:50.276Z,4.17
2019-01-10T12:51:18.905Z,4.22
2019-01-10T12:53:47.685Z,3.80
2019-01-10T12:56:18.467Z,3.83
2019-01-10T12:58:52.667Z,5.50
2019-01-10T13:01:21.552Z,5.75
2019-01-10T13:03:50.266Z,25.32
2019-01-10T13:06:19.006Z,4.37
2019-01-10T13:08:49.334Z,3.77
2019-01-10T13:11:17.990Z,4.00
2019-01-10T13:13:46.678Z,5.00
2019-01-10T13:16:15.569Z,3.65
2019-01-10T13:18:44.309Z,3.67
2019-01-10T13:21:14.667Z,3.90
2019-01-10T13:23:43.428Z,3.50
2019-01-10T13:26:12.203Z,3.95
2019-01-10T13:28:40.841Z,10.28
2019-01-10T13:31:09.604Z,4.75
2019-01-10T13:33:38.261Z,5.37
2019-01-10T13:36:06.941Z,8.68
2019-01-10T13:38:35.731Z,3.70
2019-01-10T13:41:04.462Z,3.70
2019-01-10T13:43:33.192Z,4.67
2019-01-10T13:46:01.978Z,3.80
2019-01-10T13:53:56.264Z,3.87
2019-01-10T13:56:25.009Z,3.90
2019-01-10T13:58:55.244Z,3.50
2019-01-10T14:01:23.945Z,3.50
2019-01-10T14:03:52.749Z,6.22
2019-01-10T14:06:21.565Z,3.85
2019-01-10T14:08:50.276Z,3.40
2019-01-10T14:11:19.050Z,13.45
2019-01-10T14:13:47.767Z,7.97
2019-01-10T14:16:16.501Z,4.87
2019-01-10T14:18:45.205Z,8.35
2019-01-10T14:21:14.073Z,6.50
2019-01-10T14:23:44.572Z,4.03
2019-01-10T14:26:13.412Z,3.60
2019-01-10T14:28:42.198Z,3.52
2019-01-10T14:31:10.960Z,3.80
2019-01-10T14:33:39.741Z,4.90
2019-01-10T14:36:10.210Z,3.60
2019-01-10T14:38:38.960Z,3.60
2019-01-10T14:41:07.586Z,2.83
2019-01-10T14:43:36.241Z,4.40
2019-01-10T14:46:04.957Z,5.25
2019-01-10T14:48:33.653Z,7.00
2019-01-10T14:51:02.468Z,3.10
2019-01-10T14:53:31.247Z,3.27
2019-01-10T14:55:59.934Z,3.37
2019-01-10T14:58:28.676Z,4.45
2019-01-10T15:00:57.390Z,3.52
2019-01-10T15:03:26.156Z,3.53
2019-01-10T15:05:54.935Z,3.25
2019-01-10T15:08:23.673Z,3.23
2019-01-10T15:10:52.410Z,3.20
2019-01-10T15:13:21.119Z,3.03
2019-01-10T15:15:49.873Z,3.47
2019-01-10T15:18:18.547Z,3.10
2019-01-10T15:20:47.244Z,3.37
2019-01-10T15:23:15.957Z,3.22
2019-01-10T15:25:44.682Z,3.50
2019-01-10T15:28:13.459Z,3.40
2019-01-10T15:30:42.161Z,3.35
2019-01-10T15:33:10.844Z,3.72
2019-01-10T15:35:39.539Z,3.57
2019-01-10T15:38:13.740Z,3.58
2019-01-10T15:40:44.218Z,3.65
2019-01-10T15:43:12.953Z,4.10
2019-01-10T15:45:41.759Z,3.90
2019-01-10T15:48:12.017Z,3.85
2019-01-10T15:50:40.828Z,3.35
2019-01-10T15:53:09.499Z,3.30
2019-01-10T15:55:38.338Z,3.40
2019-01-10T15:58:07.099Z,3.33
2019-01-10T16:00:35.816Z,3.30
2019-01-10T16:03:06.218Z,2.80
2019-01-10T16:05:35.098Z,3.40
2019-01-10T16:08:04.032Z,3.30
2019-01-10T16:10:32.697Z,3.60
2019-01-10T16:13:04.445Z,4.50
2019-01-10T16:15:33.243Z,3.85
2019-01-10T16:18:01.984Z,4.50
2019-01-10T16:20:30.761Z,3.52
2019-01-10T16:22:59.487Z,2.90
2019-01-10T16:25:28.321Z,3.10
2019-01-10T16:27:57.082Z,3.80
2019-01-10T16:30:27.451Z,3.50
2019-01-10T16:33:16.494Z,3.65
2019-01-10T16:35:45.259Z,3.52
2019-01-10T16:38:13.962Z,3.60
2019-01-10T16:40:42.615Z,3.58
2019-01-10T16:43:12.071Z,3.60
2019-01-10T16:46:01.119Z,3.67
2019-01-10T16:48:29.816Z,3.27
2019-01-10T16:51:01.615Z,3.67
2019-01-10T16:53:37.948Z,3.90
2019-01-10T16:56:06.922Z,4.28
2019-01-10T16:58:35.754Z,3.90
2019-01-10T17:01:04.448Z,4.62
2019-01-10T17:03:33.278Z,4.78
2019-01-10T17:06:01.998Z,4.10
2019-01-10T17:08:30.730Z,3.85
2019-01-10T17:11:13.553Z,3.50
2019-01-10T17:13:49.142Z,3.30
2019-01-10T17:16:18.657Z,3.15
2019-01-10T17:18:48.011Z,3.37
2019-01-10T17:21:16.740Z,3.42
2019-01-10T17:23:45.564Z,3.63
2019-01-10T17:26:14.321Z,3.80
2019-01-10T17:28:43.089Z,4.15
2019-01-10T17:31:11.908Z,4.08
2019-01-10T17:33:40.691Z,4.00
2019-01-10T17:38:50.860Z,4.00
2019-01-10T17:41:19.473Z,3.52
2019-01-10T17:43:48.219Z,3.50
2019-01-10T17:46:16.982Z,3.87
2019-01-10T17:48:45.674Z,5.10
2019-01-10T17:53:55.715Z,4.28
2019-01-10T17:56:24.447Z,3.80
2019-01-10T17:58:53.148Z,4.00
2019-01-10T18:01:21.965Z,3.97
2019-01-10T18:03:50.684Z,4.10
2019-01-10T18:06:19.488Z,4.60
2019-01-10T18:08:48.216Z,4.20
2019-01-10T18:11:16.940Z,4.15
2019-01-10T18:13:45.808Z,4.53
2019-01-10T18:16:14.552Z,4.35
2019-01-10T18:18:43.307Z,3.92
2019-01-10T18:21:15.079Z,4.28
2019-01-10T18:23:48.037Z,4.35
2019-01-10T18:26:16.759Z,4.30
2019-01-10T18:28:45.538Z,4.50
2019-01-10T18:31:15.823Z,4.33
2019-01-10T18:33:44.674Z,4.22
2019-01-10T18:36:13.368Z,4.12
2019-01-10T18:38:42.239Z,4.30
2019-01-10T18:41:11.963Z,4.35
2019-01-10T18:46:27.354Z,4.53
2019-01-10T18:48:56.084Z,4.20
2019-01-10T18:51:24.985Z,4.17
2019-01-10T18:53:53.733Z,4.25
2019-01-10T18:56:22.398Z,3.92
2019-01-10T18:58:51.130Z,4.67
2019-01-10T19:01:19.915Z,4.87
2019-01-10T19:03:48.838Z,5.17
2019-01-10T19:06:17.590Z,5.22
2019-01-10T19:08:46.312Z,5.03
2019-01-10T19:11:15.254Z,5.60
2019-01-10T19:13:43.925Z,5.12
2019-01-10T19:16:12.742Z,4.87
2019-01-10T19:18:41.442Z,5.97
2019-01-10T19:21:10.192Z,6.58
2019-01-10T19:23:38.926Z,10.98
2019-01-10T19:26:07.652Z,11.22
2019-01-10T19:28:36.457Z,9.93
2019-01-10T19:31:05.285Z,11.93
2019-01-10T19:33:34.069Z,11.68
2019-01-10T19:36:04.844Z,8.03
2019-01-10T19:38:33.710Z,7.60
2019-01-10T19:41:02.380Z,6.53
2019-01-10T19:43:32.803Z,6.90
2019-01-10T19:46:01.635Z,5.53
2019-01-10T19:48:30.322Z,5.47
2019-01-10T19:50:59.236Z,5.37
2019-01-10T19:53:28.289Z,5.20
2019-01-10T19:55:57.334Z,8.30
2019-01-10T19:58:26.186Z,7.70
2019-01-10T20:03:37.736Z,7.00
2019-01-10T20:06:06.479Z,7.08
2019-01-10T20:08:35.349Z,5.83
2019-01-10T20:11:04.076Z,5.80
2019-01-10T20:13:32.739Z,5.33
2019-01-10T20:16:01.668Z,5.47
2019-01-10T20:18:30.405Z,5.70
2019-01-10T20:20:59.169Z,5.40
2019-01-10T20:23:28.929Z,4.97
2019-01-10T20:25:57.605Z,5.20
2019-01-10T20:28:26.457Z,5.62
2019-01-10T20:33:35.535Z,6.08
2019-01-10T20:36:04.245Z,5.87
2019-01-10T20:38:33.057Z,5.55
2019-01-10T20:41:01.871Z,5.30
2019-01-10T20:43:30.659Z,5.72
2019-01-10T20:45:59.512Z,5.17
2019-01-10T20:48:28.244Z,5.20
2019-01-10T20:50:56.974Z,5.35
2019-01-10T20:53:25.697Z,5.08
2019-01-10T20:55:54.406Z,5.50
2019-01-10T20:58:23.113Z,5.78
2019-01-10T21:03:32.486Z,5.58
2019-01-10T21:08:56.523Z,5.50
2019-01-10T21:11:25.185Z,5.35
2019-01-10T21:13:53.959Z,5.53
2019-01-10T21:16:22.661Z,5.85
2019-01-10T21:18:51.466Z,7.83
2019-01-10T21:21:20.414Z,13.45
2019-01-10T21:26:44.049Z,13.35
2019-01-10T21:29:21.242Z,14.25
2019-01-10T21:31:51.577Z,10.03
2019-01-10T21:34:20.317Z,9.00
2019-01-10T21:36:49.014Z,6.30
2019-01-10T21:39:17.984Z,6.50
2019-01-10T21:41:46.819Z,5.80
2019-01-10T21:44:15.553Z,5.00
2019-01-10T21:46:44.330Z,5.00
2019-01-10T21:49:32.082Z,5.17
2019-01-10T21:52:00.804Z,5.35
2019-01-10T21:54:29.636Z,7.43
2019-01-10T21:56:58.414Z,7.92
2019-01-10T21:59:27.096Z,7.60
2019-01-10T22:01:58.545Z,6.00
2019-01-10T22:04:27.221Z,5.65
2019-01-10T22:06:55.941Z,5.75
2019-01-10T22:09:24.704Z,6.85
2019-01-10T22:11:53.561Z,7.28
2019-01-10T22:14:22.578Z,8.85
2019-01-10T22:16:51.306Z,8.53
2019-01-10T22:19:20.055Z,6.83
2019-01-10T22:21:48.782Z,6.33
2019-01-10T22:24:17.588Z,5.97
2019-01-10T22:26:46.322Z,5.87
2019-01-10T22:29:15.076Z,5.73
2019-01-10T22:31:43.781Z,5.95
2019-01-10T22:34:12.477Z,5.63
2019-01-10T22:36:43.644Z,5.92
2019-01-10T22:39:12.337Z,6.22
2019-01-10T22:41:41.300Z,5.92
2019-01-10T22:44:10.068Z,5.28
2019-01-10T22:46:38.794Z,5.65
2019-01-10T22:49:07.547Z,5.30
2019-01-10T22:51:36.288Z,6.08
2019-01-10T22:54:05.004Z,6.22
2019-01-10T22:56:33.825Z,6.45
2019-01-10T22:59:02.650Z,6.10
2019-01-10T23:04:45.814Z,5.92
2019-01-10T23:07:16.414Z,6.60
2019-01-10T23:09:47.361Z,6.25
2019-01-10T23:12:16.364Z,5.92
2019-01-10T23:14:45.223Z,6.00
2019-01-10T23:17:14.050Z,6.08
2019-01-10T23:20:02.018Z,5.95
2019-01-10T23:22:30.766Z,6.53
2019-01-10T23:24:59.465Z,5.75
2019-01-10T23:27:28.264Z,5.83
2019-01-10T23:29:56.872Z,5.62
2019-01-10T23:32:25.540Z,5.62
2019-01-10T23:34:54.308Z,5.65
2019-01-10T23:37:23.743Z,5.73
2019-01-10T23:39:53.019Z,5.45
2019-01-10T23:42:21.785Z,5.95
2019-01-10T23:44:50.580Z,5.45
2019-01-10T23:47:19.334Z,5.37
2019-01-10T23:49:48.116Z,5.37
2019-01-10T23:52:16.764Z,5.92
2019-01-10T23:54:45.541Z,5.62
2019-01-10T23:57:14.432Z,5.92
2019-01-10T23:59:43.244Z,5.63
